Home > Products > Valid Products > MTR

000
SAUS43 KAPX 020455
MTRAPN
METAR KAPN 020454Z AUTO 24004KT 10SM CLR 19/18 A2974 RMK AO2 SLP069
T01940183 402830150 $





000
SAUS43 KAPX 020355
MTRAPN
METAR KAPN 020354Z AUTO 24005KT 10SM FEW025 19/18 A2974 RMK AO2
SLP068 T01940183 $





000
SAUS43 KAPX 020355
MTRAPN
METAR KAPN 020354Z AUTO 24005KT 10SM FEW025 19/18 A2974 RMK AO2
SLP068 T01940183 $





000
SAUS43 KAPX 020255
MTRAPN
METAR KAPN 020254Z AUTO 24004KT 10SM CLR 19/18 A2974 RMK AO2 SLP067
60024 T01940183 51016 $





000
SAUS43 KAPX 020155
MTRAPN
METAR KAPN 020154Z AUTO 26003KT 10SM FEW038 SCT100 19/19 A2973 RMK
AO2 RAE0057 SLP065 P0000 T01940189 $





000
SAUS43 KAPX 020055
MTRAPN
METAR KAPN 020054Z AUTO 26003KT 10SM -RA SCT021 BKN044 OVC100 21/19
A2971 RMK AO2 RAB25 SLP059 P0024 T02060189 $





000
SAUS43 KAPX 020049
MTRAPN
SPECI KAPN 020048Z AUTO 26004KT 3SM -RA BR FEW017 BKN044 OVC060
21/19 A2971 RMK AO2 RAB25 P0024 $





000
SAUS43 KAPX 020044
MTRAPN
SPECI KAPN 020043Z AUTO 25004KT 2SM +RA BR FEW017 BKN027 OVC060
20/19 A2971 RMK AO2 VIS 1 1/4V5 RAB25 P0022 T02000194 $





000
SAUS43 KAPX 020035
MTRAPN
SPECI KAPN 020033Z AUTO 30009G18KT 1 3/4SM +RA BR SCT018 BKN034
OVC047 21/19 A2971 RMK AO2 RAB25 P0005 T02060194 $





000
SAUS43 KAPX 012355
MTRAPN
METAR KAPN 012354Z AUTO 21003KT 10SM FEW042 FEW055 BKN070 22/19
A2969 RMK AO2 SLP052 60109 T02220194 10283 20206 53007 $





000
SAUS43 KAPX 012255
MTRAPN
METAR KAPN 012254Z AUTO 23005KT 10SM FEW022 SCT055 23/19 A2968 RMK
AO2 SLP049 T02330189 $





000
SAUS43 KAPX 012155
MTRAPN
METAR KAPN 012154Z AUTO 20009KT 10SM CLR 23/19 A2967 RMK AO2 SLP043
T02330194 $





000
SAUS43 KAPX 012056 COR
MTRAPN
METAR KAPN 012054Z AUTO 21007KT 10SM FEW100 22/21 A2967 RMK AO2 PK
WND 27027/1955 LTG DSNT E RAE26 TSE1957E08E16 SLP045 P0041 60109
T02220206 56002 $





000
SAUS43 KAPX 012055
MTRAPN
METAR KAPN 012054Z AUTO 21007KT 10SM FEW100 22/21 A2967 RMK AO2 PK
WND 27027/1955 LTG DSNT E RAE26 TSE1957E08E16 SLP045 P0041 60109
T02220206 56002 $





000
SAUS43 KAPX 012033 COR
MTRAPN
SPECI KAPN 012031Z AUTO 22007G15KT 10SM FEW012 SCT042 BKN060 22/21
A2967 RMK AO2 PK WND 27027/1955 LTG DSNT NE AND SE RAE26
TSE1957E08E16 P0041 T02170206 $





000
SAUS43 KAPX 012018 COR
MTRAPN
SPECI KAPN 012016Z AUTO 23009KT 4SM -RA BR SCT012 BKN021 OVC065
21/20 A2967 RMK AO2 PK WND 27027/1955 VIS 2 1/2 RY 19 TSE1957E08E16
P0040 T02110200 $





000
SAUS43 KAPX 012016 COR
MTRAPN
SPECI KAPN 012013Z AUTO 24010G19KT 2 1/2SM TSRA BR SCT012 BKN023
OVC065 21/20 A2968 RMK AO2 PK WND 27027/1955 VIS 1 3/4 RY 19 LTG
DSNT NE-S TSE1957E08 P0040 T02110200 $





000
SAUS43 KAPX 012015
MTRAPN
SPECI KAPN 012013Z AUTO 24010G19KT 2 1/2SM TSRA BR SCT012 BKN023
OVC065 21/20 A2968 RMK AO2 PK WND 27027/1955 VIS 1 3/4 RY 19 LTG
DSNT NE-S TSE1957E08 P0040 T02110200 $





000
SAUS43 KAPX 011959 COR
MTRAPN
SPECI KAPN 011957Z AUTO 27017G27KT 1/2SM +RA FG BKN013 BKN018 OVC032
21/20 A2967 RMK AO2 PK WND 27027/1955 TSE57 P0012 T02060200 $





000
SAUS43 KAPX 011956 COR
MTRAPN
METAR KAPN 011954Z AUTO 26012G20KT 230V310 3/4SM +TSRA BR FEW006
BKN015 OVC034 21/20 A2968 RMK AO2 LTG DSNT N AND SE AND S RAB21
SLP048 P0068 T02060200 $





000
SAUS43 KAPX 011949
MTRAPN
SPECI KAPN 011948Z AUTO 28009G19KT 250V320 3/4SM +RA BR FEW006
BKN019 OVC036 22/21 A2968 RMK AO2 RAB21 P0036 TSNO $





000
SAUS43 KAPX 011946
MTRAPN
SPECI KAPN 011945Z AUTO 28009KT 3/4SM VCTS +RA BR BKN021 BKN035
OVC060 23/22 A2968 RMK AO2 LTG DSNT S-W RAB21 PRESRR P0028 T02280217
$





000
SAUS43 KAPX 011942
MTRAPN
SPECI KAPN 011940Z AUTO 21009KT 3/4SM VCTS +RA BR SCT023 BKN035
OVC085 23/21 A2966 RMK AO2 LTG DSNT S-W RAB21 PRESRR P0015 T02330211
$





000
SAUS43 KAPX 011937 COR
MTRAPN
SPECI KAPN 011935Z AUTO 20009KT 1 1/2SM +RA SCT031 BKN042 OVC095
24/21 A2966 RMK AO2 LTG DSNT S-W RAB21 P0002 T02390211 $





000
SAUS43 KAPX 011856 COR
MTRAPN
METAR KAPN 011854Z AUTO 17015G24KT 10SM SCT033 SCT043 OVC070 27/20
A2964 RMK AO2 PK WND 17026/1841 SLP034 T02670200 $





000
SAUS43 KAPX 011855
MTRAPN
METAR KAPN 011854Z AUTO 17015G24KT 10SM SCT033 SCT043 OVC070 27/20
A2964 RMK AO2 PK WND 17026/1841 SLP034 T02670200 $





000
SAUS43 KAPX 011756
MTRAPN
METAR KAPN 011754Z AUTO 17015KT 10SM FEW029 BKN039 BKN048 27/21
A2967 RMK AO2 SLP046 T02720206 10278 20172 58036 $





000
SAUS43 KAPX 011655
MTRAPN
METAR KAPN 011654Z AUTO 17016G23KT 10SM SCT020 27/21 A2972 RMK AO2
SLP061 T02670211 $





000
SAUS43 KAPX 011626
MTRAPN
SPECI KAPN 011624Z AUTO 17015KT 10SM SCT019 27/21 A2974 RMK AO2
T02670211 $





000
SAUS43 KAPX 011555
MTRAPN
METAR KAPN 011554Z AUTO 17012KT 10SM BKN019 26/21 A2976 RMK AO2
SLP075 T02610211 $





000
SAUS43 KAPX 011545
MTRAPN
SPECI KAPN 011544Z AUTO 18011G17KT 10SM BKN019 26/21 A2977 RMK AO2
T02610211 $





000
SAUS43 KAPX 011455
MTRAPN
METAR KAPN 011454Z AUTO 19007KT 10SM CLR 25/21 A2978 RMK AO2 SLP083
T02500206 56022 $





000
SAUS43 KAPX 011355
MTRAPN
METAR KAPN 011354Z AUTO 16008KT 10SM CLR 21/19 A2979 RMK AO2 SLP088
T02060194 $





000
SAUS43 KAPX 011330
MTRAPN
SPECI KAPN 011329Z AUTO 16007KT 10SM SCT002 19/19 A2981 RMK AO2
T01940189 $





000
SAUS43 KAPX 011309
MTRAPN
SPECI KAPN 011308Z AUTO 17006KT 3SM BR OVC002 18/18 A2982 RMK AO2
T01830183 $





000
SAUS43 KAPX 011302
MTRAPN
SPECI KAPN 011301Z AUTO 17006KT 1SM BR OVC002 18/18 A2982 RMK AO2
T01830183 $





000
SAUS43 KAPX 011255
MTRAPN
METAR KAPN 011254Z AUTO 16005KT 1/4SM FG VV002 18/18 A2983 RMK AO2
SLP099 T01830183 $





000
SAUS43 KAPX 011155
MTRAPN
METAR KAPN 011154Z AUTO 14005KT 1/4SM FG VV002 17/17 A2985 RMK AO2
SLP107 T01720172 10172 20150 58009 $





000
SAUS43 KAPX 011055
MTRAPN
METAR KAPN 011054Z AUTO 16005KT 1/4SM FG VV002 17/17 A2986 RMK AO2
SLP108 T01670167 $





000
SAUS43 KAPX 010955
MTRAPN
METAR KAPN 010954Z AUTO 15003KT 1/4SM FG VV002 16/16 A2987 RMK AO2
SLP115 T01560156 $





000
SAUS43 KAPX 010855
MTRAPN
METAR KAPN 010854Z AUTO 16003KT 1/4SM FG VV002 15/15 A2988 RMK AO2
SLP116 T01500150 58015





000
SAUS43 KAPX 010843
MTRAPN
SPECI KAPN 010842Z AUTO 00000KT 1/2SM FG VV002 15/15 A2988 RMK AO2
T01500150





000
SAUS43 KAPX 010755
MTRAPN
METAR KAPN 010754Z AUTO 00000KT 1/4SM FG VV002 16/16 A2990 RMK AO2
SLP122 T01560156





000
SAUS43 KAPX 010655
MTRAPN
METAR KAPN 010654Z AUTO 18003KT 1/4SM FG VV002 16/16 A2992 RMK AO2
SLP130 T01560156





000
SAUS43 KAPX 010631
MTRAPN
SPECI KAPN 010630Z AUTO 17005KT 1/4SM FG VV002 16/16 A2992 RMK AO2
T01610161





000
SAUS43 KAPX 010621
MTRAPN
SPECI KAPN 010620Z AUTO 16007KT 1/2SM FG VV002 16/16 A2992 RMK AO2
T01610161





000
SAUS43 KAPX 010613
MTRAPN
SPECI KAPN 010611Z AUTO 15005KT 1 1/2SM BR OVC003 16/16 A2992 RMK
AO2 T01610161





000
SAUS43 KAPX 010600
MTRAPN
SPECI KAPN 010559Z AUTO 15005KT 10SM BKN003 16/15 A2992 RMK AO2
T01560150





000
SAUS43 KAPX 010555
MTRAPN
METAR KAPN 010554Z AUTO 15004KT 9SM SCT005 15/15 A2992 RMK AO2
SLP131 T01500150 10183 20144 55001





000
SAUS43 KAPX 010455
MTRAPN
METAR KAPN 010454Z AUTO 15004KT 8SM SCT002 15/14 A2991 RMK AO2
SLP126 T01500144 402390144





000
SAUS43 KAPX 010441
MTRAPN
SPECI KAPN 010440Z AUTO 16003KT 7SM BKN002 16/15 A2991 RMK AO2
T01560150





000
SAUS43 KAPX 010428
MTRAPN
SPECI KAPN 010427Z AUTO 16004KT 10SM FEW002 15/15 A2991 RMK AO2
T01500150





000
SAUS43 KAPX 010355
MTRAPN
METAR KAPN 010354Z AUTO 14004KT 10SM CLR 16/15 A2990 RMK AO2 VIS 1
1/4 RY 19 SLP126 T01560150





000
SAUS43 KAPX 010255
MTRAPN
METAR KAPN 010254Z AUTO 00000KT 10SM CLR 16/15 A2993 RMK AO2 SLP133
T01560150 58003





000
SAUS43 KAPX 010155
MTRAPN
METAR KAPN 010154Z AUTO 00000KT 10SM CLR 16/16 A2993 RMK AO2 SLP136
T01610156





000
SAUS43 KAPX 010155
MTRAPN
METAR KAPN 010154Z AUTO 00000KT 10SM CLR 16/16 A2993 RMK AO2 SLP136
T01610156





000
SAUS43 KAPX 010055
MTRAPN
METAR KAPN 010054Z AUTO 13003KT 10SM CLR 17/16 A2994 RMK AO2 SLP137
T01670161





000
SAUS43 KAPX 312355
MTRAPN
METAR KAPN 312354Z AUTO 14004KT 10SM CLR 18/17 A2993 RMK AO2 SLP136
T01830167 10239 20183 51002





000
SAUS43 KAPX 312255
MTRAPN
METAR KAPN 312254Z AUTO VRB05KT 10SM CLR 22/17 A2993 RMK AO2 SLP133
T02220167





000
SAUS43 KAPX 312155
MTRAPN
METAR KAPN 312154Z AUTO 25006KT 10SM OVC037 22/16 A2993 RMK AO2
SLP135 T02220161





000
SAUS43 KAPX 312055
MTRAPN
METAR KAPN 312054Z AUTO 23009KT 10SM FEW025 OVC038 23/17 A2993 RMK
AO2 SLP132 T02280167 53002





000
SAUS43 KAPX 311955
MTRAPN
METAR KAPN 311954Z AUTO 24005KT 10SM OVC031 23/17 A2992 RMK AO2
SLP131 T02280167





000
SAUS43 KAPX 311855
MTRAPN
METAR KAPN 311854Z AUTO VRB06KT 10SM BKN033 23/17 A2992 RMK AO2
SLP129 T02330167





000
SAUS43 KAPX 311845
MTRAPN
SPECI KAPN 311844Z AUTO VRB05KT 10SM BKN031 23/17 A2992 RMK AO2
T02330167





000
SAUS43 KAPX 311755
MTRAPN
METAR KAPN 311754Z AUTO 32008KT 10SM BKN026 23/17 A2992 RMK AO2
SLP130 T02280167 10233 20183 50003





000
SAUS43 KAPX 311655
MTRAPN
METAR KAPN 311654Z AUTO 28007KT 250V330 10SM OVC021 22/17 A2992 RMK
AO2 SLP131 T02170167





000
SAUS43 KAPX 311556
MTRAPN
METAR KAPN 311554Z AUTO 28007KT 10SM BKN015 OVC020 21/16 A2992 RMK
AO2 SLP129 T02060161





000
SAUS43 KAPX 311508
MTRAPN
SPECI KAPN 311506Z AUTO 28009G15KT 10SM OVC015 19/16 A2992 RMK AO2
T01940161





000
SAUS43 KAPX 311455
MTRAPN
METAR KAPN 311454Z AUTO 27008KT 240V310 10SM OVC014 19/16 A2991 RMK
AO2 SLP128 T01940161 51010





000
SAUS43 KAPX 311355
MTRAPN
METAR KAPN 311354Z AUTO 28007KT 10SM OVC012 19/16 A2990 RMK AO2
SLP125 T01890161





000
SAUS43 KAPX 311255
MTRAPN
METAR KAPN 311254Z AUTO VRB05G15KT 10SM OVC012 18/16 A2990 RMK AO2
SLP123 T01830161





000
SAUS43 KAPX 311155
MTRAPN
METAR KAPN 311154Z AUTO 28008KT 10SM BKN013 BKN018 18/16 A2988 RMK
AO2 SLP117 60000 70067 T01830161 10194 20183 53015





000
SAUS43 KAPX 311147
MTRAPN
SPECI KAPN 311145Z AUTO 26009KT 240V310 10SM OVC013 18/17 A2988 RMK
AO2 T01830167





000
SAUS43 KAPX 311104
MTRAPN
SPECI KAPN 311103Z AUTO 27009KT 10SM BKN015 OVC070 18/17 A2987 RMK
AO2 T01830167 TSNO





000
SAUS43 KAPX 311055
MTRAPN
METAR KAPN 311054Z AUTO 27009KT 10SM BKN013 OVC070 18/17 A2986 RMK
AO2 RAE06 SLP111 P0000 T01830167





000
SAUS43 KAPX 310955
MTRAPN
METAR KAPN 310954Z AUTO 26007KT 10SM -RA BKN012 OVC023 18/17 A2984
RMK AO2 SLP103 P0000 T01830167





000
SAUS43 KAPX 310856
MTRAPN
METAR KAPN 310854Z AUTO 25005KT 10SM -RA OVC011 18/17 A2984 RMK AO2
SLP101 P0000 60000 T01830172 53006





000
SAUS43 KAPX 310804
MTRAPN
SPECI KAPN 310803Z AUTO 25005KT 10SM -RA OVC014 19/17 A2983 RMK AO2
P0000 T01890172





000
SAUS43 KAPX 310755
MTRAPN
METAR KAPN 310754Z AUTO 24005KT 10SM -RA OVC015 19/17 A2983 RMK AO2
SLP099 P0000 T01890172





000
SAUS43 KAPX 310735
MTRAPN
SPECI KAPN 310734Z AUTO 24006KT 10SM -RA OVC015 19/17 A2983 RMK AO2
P0000 T01890172





000
SAUS43 KAPX 310655
MTRAPN
METAR KAPN 310654Z AUTO 25004KT 10SM -RA BKN013 19/18 A2982 RMK AO2
RAB0557 SLP096 P0000 T01890178





000
SAUS43 KAPX 310650
MTRAPN
SPECI KAPN 310649Z AUTO 26004KT 10SM -RA BKN015 19/18 A2982 RMK AO2
RAB0557 P0000





000
SAUS43 KAPX 310617
MTRAPN
SPECI KAPN 310616Z AUTO 25005KT 10SM -RA SCT015 19/18 A2982 RMK AO2
RAB0557 P0000 T01890178





000
SAUS43 KAPX 310556
MTRAPN
METAR KAPN 310554Z AUTO 25005KT 10SM BKN015 19/18 A2981 RMK AO2
RAE28B49E53 SLP092 P0000 60006 T01940183 10217 20194 51010





000
SAUS43 KAPX 310455
MTRAPN
METAR KAPN 310454Z AUTO 21006KT 10SM -RA FEW025 19/19 A2980 RMK AO2
SLP089 P0000 T01940189 402720172





000
SAUS43 KAPX 310355
MTRAPN
METAR KAPN 310354Z AUTO 22005KT 10SM -RA CLR 20/19 A2978 RMK AO2
SLP083 P0000 T02000189





000
SAUS43 KAPX 310255
MTRAPN
METAR KAPN 310254Z AUTO 21006KT 10SM -RA CLR 21/19 A2978 RMK AO2
RAE06B32 SLP084 P0000 60006 T02060189 51010





000
SAUS43 KAPX 310156
MTRAPN
METAR KAPN 310154Z AUTO 23006KT 10SM -RA SCT041 BKN050 BKN060 21/20
A2978 RMK AO2 RAB10 SLP083 P0000 T02110200





000
SAUS43 KAPX 310129
MTRAPN
SPECI KAPN 310127Z AUTO 21004KT 10SM -RA FEW022 SCT032 OVC041 21/20
A2978 RMK AO2 RAB10 P0000 T02110200





000
SAUS43 KAPX 310055
MTRAPN
METAR KAPN 310054Z AUTO 21005KT 10SM FEW016 BKN025 OVC047 22/21
A2977 RMK AO2 LTG DSNT E AND SE RAB14E45 SLP078 P0006 T02170206





000
SAUS43 KAPX 302356 COR
MTRAPN
METAR KAPN 302354Z AUTO 16005KT 10SM FEW080 OVC100 22/21 A2975 RMK
AO2 LTG DSNT E SLP073 60026 T02170206 10272 20217 56003





000
SAUS43 KAPX 302336
MTRAPN
SPECI KAPN 302335Z AUTO 15004KT 10SM FEW055 BKN095 OVC120 22/21
A2975 RMK AO2 LTG DSNT E T02220211





000
SAUS43 KAPX 302321
MTRAPN
SPECI KAPN 302320Z AUTO 00000KT 10SM VCTS FEW060 SCT080 22/21 A2975
RMK AO2 LTG DSNT N AND SE T02220206





000
SAUS43 KAPX 302248 COR
MTRAPN
SPECI KAPN 302245Z AUTO 22009KT 3SM -RA BR FEW015 BKN023 OVC100
23/21 A2976 RMK AO2 VIS 1 RY 19 RAB21 P0026 T02330211 TSNO





000
SAUS43 KAPX 302243 COR
MTRAPN
SPECI KAPN 302241Z AUTO 23008KT 1SM VCTS RA BR FEW015 BKN023 OVC060
23/21 A2976 RMK AO2 LTG DSNT N RAB21 P0026 T02280211





000
SAUS43 KAPX 302235
MTRAPN
SPECI KAPN 302234Z AUTO 28007KT 240V310 1/2SM VCTS +RA FG SCT025
BKN065 23/22 A2976 RMK AO2 RAB21 P0016 T02280217





000
SAUS43 KAPX 302229
MTRAPN
SPECI KAPN 302228Z AUTO 21008KT 1 3/4SM RA FEW031 BKN065 24/21 A2976
RMK AO2 LTG DSNT NW RAB21 P0002 T02390211





000
SAUS43 KAPX 302155
MTRAPN
METAR KAPN 302154Z AUTO 17008KT 10SM CLR 24/21 A2974 RMK AO2 LTG
DSNT W RAE08 SLP070 P0000 T02390206





000
SAUS43 KAPX 302120
MTRAPN
SPECI KAPN 302119Z AUTO 18010KT 10SM FEW110 25/21 A2976 RMK AO2
RAE08 P0000 T02500206 TSNO





000
SAUS43 KAPX 302102
MTRAPN
SPECI KAPN 302101Z AUTO 20012KT 10SM VCTS -RA FEW031 SCT055 BKN090
25/21 A2976 RMK AO2 P0000 T02500211





000
SAUS43 KAPX 302055
MTRAPN
METAR KAPN 302054Z AUTO 18008KT 10SM -RA FEW041 BKN070 OVC100 24/21
A2976 RMK AO2 LTG DSNT N RAB39 SLP075 P0000 60000 T02440211 56016





000
SAUS43 KAPX 301955
MTRAPN
METAR KAPN 301954Z AUTO 18010KT 10SM CLR 26/21 A2977 RMK AO2 LTG
DSNT W SLP080 T02560206





000
SAUS43 KAPX 301855
MTRAPN
METAR KAPN 301854Z AUTO 20006KT 10SM FEW022 26/21 A2979 RMK AO2
SLP085 T02560206





000
SAUS43 KAPX 301822
MTRAPN
SPECI KAPN 301820Z AUTO 19011G19KT 10SM SCT019 26/21 A2980 RMK AO2
T02560206





000
SAUS43 KAPX 301755
MTRAPN
METAR KAPN 301754Z AUTO 20009KT 9SM SCT017 BKN023 24/21 A2981 RMK
AO2 SLP091 60035 T02440206 10244 20183 56013





000
SAUS43 KAPX 301704
MTRAPN
SPECI KAPN 301702Z AUTO 20008KT 8SM BKN015 OVC020 23/21 A2982 RMK
AO2 T02280206





000
SAUS43 KAPX 301655
MTRAPN
METAR KAPN 301654Z AUTO 21006KT 8SM OVC014 23/21 A2982 RMK AO2
SLP096 T02280206





000
SAUS43 KAPX 301618
MTRAPN
SPECI KAPN 301616Z AUTO 21009KT 10SM BKN013 22/20 A2983 RMK AO2
T02170200





000
SAUS43 KAPX 301604
MTRAPN
SPECI KAPN 301603Z AUTO 19010KT 9SM FEW009 SCT015 SCT033 22/21 A2983
RMK AO2 T02170206 TSNO





000
SAUS43 KAPX 301555
MTRAPN
METAR KAPN 301554Z AUTO 19009KT 9SM FEW033 22/20 A2983 RMK AO2 LTG
DSNT NE RAE38 SLP100 P0026 T02170200





000
SAUS43 KAPX 301530
MTRAPN
SPECI KAPN 301528Z AUTO 19007KT 3SM -RA BR FEW029 BKN044 OVC080
21/19 A2984 RMK AO2 P0026 T02060194





000
SAUS43 KAPX 301456 COR
MTRAPN
METAR KAPN 301454Z AUTO 20004KT 1 1/4SM +RA BR SCT033 BKN042 OVC050
20/19 A2985 RMK AO2 RAE13B49 SLP106 P0007 60009 T02000189 56002 TSNO





000
SAUS43 KAPX 301455
MTRAPN
METAR KAPN 301454Z AUTO 20004KT 1 1/4SM +RA BR SCT033 BKN042 OVC050
20/19 A2985 RMK AO2 RAE13B49 SLP106 P0007 60009 T02000189 56002 TSNO





000
SAUS43 KAPX 301453
MTRAPN
SPECI KAPN 301451Z AUTO 21006KT 2 1/2SM VCTS -RA BR FEW024 BKN042
OVC050 20/19 A2985 RMK AO2 RAE13B49 P0001





000
SAUS43 KAPX 301356
MTRAPN
METAR KAPN 301354Z AUTO 22005KT 10SM -RA SCT065 OVC095 20/18 A2985
RMK AO2 RAB29 SLP106 P0002 T02000183





000
SAUS43 KAPX 301255
MTRAPN
METAR KAPN 301254Z AUTO 19009KT 10SM CLR 19/17 A2985 RMK AO2 SLP108
T01940172





000
SAUS43 KAPX 301156
MTRAPN
METAR KAPN 301154Z AUTO 18004KT 10SM CLR 18/17 A2986 RMK AO2 SLP110
60016 70047 T01830167 10200 20172 58006





000
SAUS43 KAPX 301055
MTRAPN
METAR KAPN 301054Z AUTO 15003KT 10SM CLR 17/16 A2987 RMK AO2 SLP114
T01720161





000
SAUS43 KAPX 300955
MTRAPN
METAR KAPN 300954Z AUTO 19006KT 10SM FEW120 18/17 A2987 RMK AO2
SLP113 T01780167





000
SAUS43 KAPX 300855
MTRAPN
METAR KAPN 300854Z AUTO 18006KT 10SM CLR 17/16 A2988 RMK AO2 SLP117
60016 T01720161 56019





000
SAUS43 KAPX 300756 COR
MTRAPN
METAR KAPN 300754Z AUTO 17009KT 10SM SCT110 18/17 A2990 RMK AO2 LTG
DSNT NE AND E RAE00 TSE0657E03E12 SLP123 P0000 T01830167





000
SAUS43 KAPX 300737
MTRAPN
SPECI KAPN 300735Z AUTO 19011KT 10SM FEW075 FEW090 SCT110 19/17
A2990 RMK AO2 LTG DSNT NE AND E RAE00 TSE0657E03E12 P0000 T01890167





000
SAUS43 KAPX 300720
MTRAPN
SPECI KAPN 300718Z AUTO 19010KT 10SM VCTS FEW041 BKN075 BKN100 19/18
A2991 RMK AO2 LTG DSNT NE AND E RAE00 TSE0657E03E12 P0000 T01940178





000
SAUS43 KAPX 300655
MTRAPN
METAR KAPN 300654Z AUTO 17012KT 6SM -TSRA BR BKN043 BKN060 OVC080
18/18 A2991 RMK AO2 LTG DSNT NE AND S TSB09E19B36E45 SLP129 P0016
T01830183





    US Dept of Commerce
    National Oceanic and Atmospheric Administration
    National Weather Service
    1325 East West Highway
    Silver Spring, MD 20910
    Page Author: NWS Internet Services Team
Disclaimer
Information Quality
Credits
Glossary
Privacy Policy
Freedom of Information Act (FOIA)
About Us
Career Opportunities